• Join FlightAware (Why Join?)
  • Login
  • US Flag 
06:28AM EDT


 

Airport Tracker/Info


-or-


 

Live Flight TrackerFlight Track Log ✈ N8425N ✈ 27-Apr-2013 ✈ KUAO - KUDD

Flight Track Log - Related Links

Times and Time Zones

All times are in EDT time to prevent confusion due to time zone crossing. See the N8425N flight status page for this flight to view local times or setup timezone preferences in your user account.

Time Position Orientation Groundspeed Altitude Reporting Facility
EDT Latitude Longitude Course Direction KTS MPH feet Rate Location/Type
02:00PM 45.0597 -122.7236 165° South 111 128 4,800  Level Seattle Center
02:01PM 45.0306 -122.7122 165° South 110 127 5,500 540 Climbing Seattle Center
02:02PM 44.9972 -122.6972 162° South 120 138 6,000 480 Climbing Seattle Center
02:03PM 44.9603 -122.6814 163° South 132 152 6,500 420 Climbing Seattle Center
02:04PM 44.9222 -122.6653 163° South 139 160 6,900 420 Climbing Seattle Center
02:05PM 44.8844 -122.6617 176° South 137 158 7,400 420 Climbing Seattle Center
02:06PM 44.8492 -122.6592 177° South 138 159 7,800 480 Climbing Seattle Center
02:07PM 44.8117 -122.6542 175° South 137 158 8,400 600 Climbing Seattle Center
02:08PM 44.7675 -122.6489 175° South 134 154 9,100 600 Climbing Seattle Center
02:09PM 44.7317 -122.6450 176° South 130 150 9,700 540 Climbing Seattle Center
02:10PM 44.6950 -122.6422 177° South 131 151 10,300 540 Climbing Seattle Center
02:11PM 44.6586 -122.6386 176° South 131 151 10,900 540 Climbing Seattle Center
02:12PM 44.6211 -122.6367 178° South 133 153 11,400 240 Climbing Seattle Center
02:13PM 44.5767 -122.6344 178° South 149 171 11,400  Level Seattle Center
02:14PM 44.5294 -122.6300 176° South 165 190 11,500  Climbing Seattle Center
02:15PM 44.4850 -122.6233 174° South 161 185 11,500  Level Seattle Center
02:16PM 44.4417 -122.6183 175° South 156 180 11,500  Level Seattle Center
02:18PM 44.3978 -122.6153 177° South 157 181 11,500  Level Seattle Center
02:19PM 44.3531 -122.6114 176° South 160 184 11,500  Level Seattle Center
02:20PM 44.3103 -122.6072 176° South 157 181 11,500  Level Seattle Center
02:21PM 44.2658 -122.6036 177° South 158 182 11,500  Level Seattle Center
02:22PM 44.2219 -122.5994 176° South 158 182 11,500  Level Seattle Center
02:23PM 44.1761 -122.5944 176° South 162 186 11,500  Level Seattle Center
02:24PM 44.1328 -122.5914 177° South 159 183 11,500  Level Seattle Center
02:25PM 44.0869 -122.5861 175° South 161 185 11,500  Level Seattle Center
02:26PM 44.0325 -122.5825 177° South 164 189 11,500  Level Seattle Center
02:27PM 43.9856 -122.5781 176° South 167 192 11,500  Level Seattle Center
02:28PM 43.9408 -122.5728 175° South 163 188 11,500  Level Seattle Center
02:29PM 43.8967 -122.5689 176° South 161 185 11,500  Level Seattle Center
02:30PM 43.8528 -122.5653 177° South 158 182 11,500  Level Seattle Center
02:31PM 43.8069 -122.5619 177° South 162 186 11,500  Level Seattle Center
02:32PM 43.7619 -122.5558 174° South 163 188 11,500  Level Seattle Center
02:33PM 43.7172 -122.5531 177° South 161 185 11,500  Level Seattle Center
02:34PM 43.6714 -122.5486 176° South 164 189 11,500  Level Seattle Center
02:35PM 43.6253 -122.5444 176° South 165 190 11,500  Level Seattle Center
02:36PM 43.5806 -122.5397 176° South 162 186 11,500  Level Seattle Center
02:37PM 43.5325 -122.5358 177° South 168 193 11,500  Level Seattle Center
02:38PM 43.4903 -122.5319 176° South 159 183 11,500  Level Seattle Center
02:39PM 43.4447 -122.5281 176° South 160 184 11,500  Level Seattle Center
02:40PM 43.4000 -122.5228 175° South 162 186 11,500  Level Seattle Center
02:41PM 43.3542 -122.5203 178° South 163 188 11,500  Level Seattle Center
02:42PM 43.3078 -122.5144 175° South 166 191 11,500  Level Seattle Center
02:43PM 43.2533 -122.5108 177° South 165 190 11,500  Level Seattle Center
02:44PM 43.2075 -122.5081 177° South 164 189 11,500  Level Seattle Center
02:45PM 43.1631 -122.5031 175° South 163 188 11,500  Level Seattle Center
02:46PM 43.1183 -122.4972 175° South 162 186 11,500  Level Seattle Center
02:47PM 43.0703 -122.4964 179° South 168 193 11,500  Level Seattle Center
02:48PM 43.0253 -122.4925 176° South 163 188 11,500  Level Seattle Center
02:49PM 42.9797 -122.4878 176° South 163 188 11,500  Level Seattle Center
02:50PM 42.9333 -122.4831 176° South 168 193 11,500  Level Seattle Center
02:51PM 42.8886 -122.4789 176° South 164 189 11,500  Level Seattle Center
02:52PM 42.8422 -122.4742 176° South 169 194 11,500  Level Seattle Center
02:53PM 42.7964 -122.4711 177° South 165 190 11,500  Level Seattle Center
02:54PM 42.7478 -122.4683 178° South 172 198 11,500  Level Seattle Center
02:55PM 42.7008 -122.4633 176° South 167 192 11,600  Climbing Seattle Center
02:56PM 42.6553 -122.4578 175° South 165 190 11,600  Level Seattle Center
02:57PM 42.6075 -122.4547 177° South 172 198 11,600  Level Seattle Center
02:58PM 42.5606 -122.4481 174° South 170 196 11,600  Level Seattle Center
02:59PM 42.5153 -122.4447 177° South 163 188 11,600  Level Seattle Center
03:00PM 42.4692 -122.4403 176° South 165 190 11,600  Level Seattle Center
03:01PM 42.4144 -122.4378 178° South 165 190 11,600  Level Seattle Center
03:02PM 42.3714 -122.4333 176° South 157 181 11,600  Level Seattle Center
03:03PM 42.3264 -122.4275 175° South 161 185 11,600  Level Seattle Center
03:04PM 42.2814 -122.4233 176° South 163 188 11,600  Level Seattle Center
03:05PM 42.2356 -122.4189 176° South 165 190 11,600  Level Seattle Center
03:06PM 42.1881 -122.4142 176° South 170 196 11,600  Level Seattle Center
03:07PM 42.1417 -122.4111 177° South 172 198 11,600  Level Seattle Center
03:08PM 42.0967 -122.4083 177° South 164 189 11,600  Level Seattle Center
03:09PM 42.0517 -122.4039 176° South 164 189 11,600  Level Seattle Center
03:10PM 42.0047 -122.3978 174° South 170 196 11,600  Level Seattle Center
03:11PM 41.9589 -122.3944 177° South 168 193 11,600  Level Seattle Center
03:12PM 41.9128 -122.3900 176° South 167 192 11,600  Level Seattle Center
03:13PM 41.8572 -122.3858 177° South 167 192 11,600  Level Seattle Center
03:14PM 41.8111 -122.3808 175° South 170 196 11,600  Level Seattle Center
03:15PM 41.7653 -122.3778 177° South 166 191 11,600  Level Seattle Center
03:16PM 41.7192 -122.3728 175° South 164 189 11,600  Level Seattle Center
03:17PM 41.6719 -122.3683 176° South 167 192 11,600  Level Seattle Center
03:18PM 41.6264 -122.3642 176° South 166 191 11,600  Level Seattle Center
03:19PM 41.5800 -122.3606 177° South 167 192 11,600  Level Seattle Center
03:20PM 41.5331 -122.3564 176° South 168 193 11,600  Level Seattle Center
03:21PM 41.4858 -122.3522 176° South 171 197 11,600  Level Seattle Center
03:22PM 41.4394 -122.3483 176° South 168 193 11,600  Level Seattle Center
03:23PM 41.3881 -122.3447 177° South 173 199 11,600 -120 Level Seattle Center
03:25PM 41.3419 -122.3397 175° South 169 194 11,400 -60 Descending Oakland Center
03:26PM 41.2947 -122.3367 177° South 170 196 11,500  Climbing Oakland Center
03:27PM 41.2389 -122.3308 176° South 169 194 11,500  Level Oakland Center
03:28PM 41.1911 -122.3261 176° South 172 198 11,500  Level Oakland Center
03:29PM 41.1442 -122.3247 179° South 170 196 11,500  Level Oakland Center
03:30PM 41.0978 -122.3217 177° South 169 194 11,500  Level Oakland Center
03:31PM 41.0506 -122.3161 175° South 169 194 11,500  Level Oakland Center
03:32PM 41.0031 -122.3114 176° South 170 196 11,500  Level Oakland Center
03:33PM 40.9558 -122.3078 177° South 171 197 11,500  Level Oakland Center
03:34PM 40.9100 -122.3042 177° South 168 193 11,500  Level Oakland Center
03:35PM 40.8628 -122.3008 177° South 168 193 11,500  Level Oakland Center
03:36PM 40.8164 -122.2969 176° South 168 193 11,500  Level Oakland Center
03:37PM 40.7603 -122.2908 175° South 169 194 11,500  Level Oakland Center
03:38PM 40.7144 -122.2867 176° South 166 191 11,500  Level Oakland Center
03:39PM 40.6694 -122.2811 175° South 165 190 11,500  Level Oakland Center
03:40PM 40.6267 -122.2553 155° Southeast 166 191 11,500  Level Oakland Center
03:41PM 40.5861 -122.2242 150° Southeast 169 194 11,500  Level Oakland Center
03:42PM 40.5444 -122.1942 151° Southeast 170 196 11,500  Level Oakland Center
03:43PM 40.5039 -122.1656 152° Southeast 167 192 11,500  Level Oakland Center
03:44PM 40.4622 -122.1392 154° Southeast 167 192 11,500  Level Oakland Center
03:45PM 40.4214 -122.1114 153° Southeast 166 191 11,500  Level Oakland Center
03:46PM 40.3797 -122.0842 154° Southeast 168 193 11,500  Level Oakland Center
03:47PM 40.3294 -122.0514 154° Southeast 168 193 11,500  Level Oakland Center
03:48PM 40.2886 -122.0231 152° Southeast 166 191 11,500  Level Oakland Center
03:49PM 40.2472 -121.9964 154° Southeast 166 191 11,500  Level Oakland Center
03:50PM 40.2058 -121.9706 155° Southeast 165 190 11,500  Level Oakland Center
03:51PM 40.1647 -121.9431 153° Southeast 166 191 11,500  Level Oakland Center
03:52PM 40.1242 -121.9164 153° Southeast 163 188 11,500  Level Oakland Center
03:53PM 40.0825 -121.8906 155° Southeast 165 190 11,500  Level Oakland Center
03:54PM 40.0411 -121.8636 154° Southeast 166 191 11,500  Level Oakland Center
03:55PM 40.0008 -121.8364 153° Southeast 163 188 11,500  Level Oakland Center
03:56PM 39.9603 -121.8114 155° Southeast 162 186 11,500  Level Oakland Center
03:57PM 39.9192 -121.7844 153° Southeast 165 190 11,500  Level Oakland Center
03:58PM 39.8700 -121.7517 153° Southeast 166 191 11,500  Level Oakland Center
03:59PM 39.8286 -121.7258 154° Southeast 166 191 11,500  Level Oakland Center
04:00PM 39.7872 -121.6983 153° Southeast 167 192 11,500  Level Oakland Center
04:01PM 39.7467 -121.6711 153° Southeast 166 191 11,500  Level Oakland Center
04:02PM 39.7058 -121.6456 154° Southeast 164 189 11,500  Level Oakland Center
04:03PM 39.6647 -121.6200 154° Southeast 164 189 11,500  Level Oakland Center
04:04PM 39.6231 -121.5919 153° Southeast 167 192 11,500  Level Oakland Center
04:05PM 39.5817 -121.5658 154° Southeast 168 193 11,500  Level Oakland Center
04:06PM 39.5406 -121.5394 154° Southeast 166 191 11,500  Level Oakland Center
04:07PM 39.4994 -121.5125 153° Southeast 167 192 11,500  Level Oakland Center
04:08PM 39.4514 -121.4839 155° Southeast 165 190 11,500  Level Oakland Center
04:09PM 39.4100 -121.4556 152° Southeast 167 192 11,500  Level Oakland Center
04:10PM 39.3675 -121.4308 156° South 167 192 11,500  Level Oakland Center
04:11PM 39.3261 -121.4028 152° Southeast 168 193 11,500  Level Oakland Center
04:13PM 39.2844 -121.3764 154° Southeast 168 193 11,500  Level Oakland Center
04:14PM 39.2425 -121.3489 153° Southeast 169 194 11,500  Level Oakland Center
04:15PM 39.2006 -121.3233 155° Southeast 168 193 11,500  Level Oakland Center
04:16PM 39.1594 -121.2969 154° Southeast 165 190 11,500  Level Oakland Center
04:16PM 39.1167 -121.2667 151° Southeast 170 196 11,500  Level Northern Cal TRACON
04:17PM 39.0667 -121.2500 165° South 171 197 11,500  Level Northern Cal TRACON
04:18PM 39.0333 -121.2167 142° Southeast 171 197 11,500  Level Northern Cal TRACON
04:20PM 38.9833 -121.1833 153° Southeast 175 201 11,500  Level Northern Cal TRACON
04:21PM 38.9500 -121.1667 159° South 171 197 11,500  Level Northern Cal TRACON
04:22PM 38.9000 -121.1333 153° Southeast 170 196 11,500  Level Northern Cal TRACON
04:23PM 38.8667 -121.1167 159° South 172 198 11,500  Level Northern Cal TRACON
04:24PM 38.8167 -121.0833 153° Southeast 170 196 11,500  Level Northern Cal TRACON
04:25PM 38.7667 -121.0500 153° Southeast 172 198 11,500  Level Northern Cal TRACON
04:26PM 38.7333 -121.0333 159° South 172 198 11,500  Level Northern Cal TRACON
04:26PM 38.7247 -121.0247 142° Southeast 175 201 11,500  Level Oakland Center
04:27PM 38.6808 -120.9989 155° Southeast 173 199 11,500  Level Oakland Center
04:28PM 38.6386 -120.9711 153° Southeast 172 198 11,500  Level Oakland Center
04:29PM 38.5950 -120.9453 155° Southeast 172 198 11,500  Level Oakland Center
04:30PM 38.5531 -120.9172 152° Southeast 171 197 11,500  Level Oakland Center
04:31PM 38.5100 -120.8897 153° Southeast 171 197 11,500  Level Oakland Center
04:32PM 38.4575 -120.8581 155° Southeast 174 200 11,500  Level Oakland Center
04:33PM 38.4144 -120.8319 155° Southeast 171 197 11,500  Level Oakland Center
04:34PM 38.3708 -120.8047 154° Southeast 173 199 11,500  Level Oakland Center
04:35PM 38.3281 -120.7783 154° Southeast 172 198 11,500  Level Oakland Center
04:36PM 38.2850 -120.7522 155° Southeast 172 198 11,500  Level Oakland Center
04:37PM 38.2419 -120.7253 154° Southeast 172 198 11,500  Level Oakland Center
04:38PM 38.1983 -120.7006 156° South 173 199 11,500  Level Oakland Center
04:39PM 38.1558 -120.6733 153° Southeast 171 197 11,500  Level Oakland Center
04:40PM 38.1133 -120.6467 154° Southeast 170 196 11,500  Level Oakland Center
04:41PM 38.0697 -120.6211 155° Southeast 171 197 11,500  Level Oakland Center
04:42PM 38.0278 -120.5950 154° Southeast 169 194 11,500  Level Oakland Center
04:43PM 37.9858 -120.5683 153° Southeast 169 194 11,500  Level Oakland Center
04:44PM 37.9353 -120.5372 154° Southeast 169 194 11,500  Level Oakland Center
04:45PM 37.8925 -120.5094 153° Southeast 172 198 11,500  Level Oakland Center
04:46PM 37.8503 -120.4831 154° Southeast 170 196 11,500  Level Oakland Center
04:47PM 37.8056 -120.4567 155° Southeast 174 200 11,500  Level Oakland Center
04:48PM 37.7631 -120.4308 154° Southeast 172 198 11,500  Level Oakland Center
04:49PM 37.7200 -120.4042 154° Southeast 173 199 11,500  Level Oakland Center
04:50PM 37.6756 -120.3786 156° South 173 199 11,500  Level Oakland Center
04:51PM 37.6342 -120.3522 153° Southeast 170 196 11,500  Level Oakland Center
04:52PM 37.5906 -120.3267 155° Southeast 172 198 11,500  Level Oakland Center
04:53PM 37.5472 -120.3003 154° Southeast 172 198 11,500  Level Oakland Center
04:54PM 37.4958 -120.2681 154° Southeast 172 198 11,500  Level Oakland Center
04:55PM 37.4528 -120.2436 156° South 171 197 11,500  Level Oakland Center
04:56PM 37.4092 -120.2175 155° Southeast 171 197 11,500  Level Oakland Center
04:57PM 37.3678 -120.1908 153° Southeast 170 196 11,500  Level Oakland Center
04:58PM 37.3208 -120.1694 160° South 178 205 11,500  Level Oakland Center
04:59PM 37.2781 -120.1431 154° Southeast 171 197 11,500  Level Oakland Center
05:00PM 37.2347 -120.1192 156° South 172 198 11,500  Level Oakland Center
05:02PM 37.1919 -120.0936 155° Southeast 170 196 11,500  Level Oakland Center
05:03PM 37.1500 -120.0675 154° Southeast 171 197 11,500  Level Oakland Center
05:04PM 37.1072 -120.0422 155° Southeast 170 196 11,500  Level Oakland Center
05:05PM 37.0622 -120.0153 154° Southeast 167 192 11,500  Level Oakland Center
05:06PM 37.0197 -119.9894 154° Southeast 169 194 11,500  Level Oakland Center
05:07PM 36.9772 -119.9647 155° Southeast 170 196 11,500  Level Oakland Center
05:08PM 36.9342 -119.9389 154° Southeast 169 194 11,500  Level Oakland Center
05:09PM 36.8836 -119.9083 154° Southeast 166 191 11,500  Level Oakland Center
05:10PM 36.8386 -119.8836 156° South 173 199 11,500  Level Oakland Center
05:11PM 36.7958 -119.8564 153° Southeast 173 199 11,500  Level Oakland Center
05:12PM 36.7533 -119.8297 153° Southeast 171 197 11,500  Level Oakland Center
05:13PM 36.7108 -119.8042 154° Southeast 169 194 11,500  Level Oakland Center
05:14PM 36.6686 -119.7789 154° Southeast 169 194 11,500  Level Oakland Center
05:15PM 36.6256 -119.7542 155° Southeast 170 196 11,500  Level Oakland Center
05:16PM 36.5828 -119.7292 155° Southeast 170 196 11,500  Level Oakland Center
05:17PM 36.5389 -119.7036 155° Southeast 172 198 11,500  Level Oakland Center
05:18PM 36.4869 -119.6733 155° Southeast 172 198 11,500  Level Oakland Center
05:19PM 36.4431 -119.6472 154° Southeast 173 199 11,500  Level Oakland Center
05:20PM 36.3997 -119.6217 155° Southeast 172 198 11,500  Level Oakland Center
05:21PM 36.3567 -119.5953 154° Southeast 172 198 11,500  Level Oakland Center
05:22PM 36.3133 -119.5711 156° South 172 198 11,500  Level Oakland Center
05:23PM 36.2708 -119.5453 154° Southeast 170 196 11,500  Level Oakland Center
05:24PM 36.2278 -119.5197 154° Southeast 171 197 11,500  Level Oakland Center
05:25PM 36.1847 -119.4961 156° South 169 194 11,500  Level Oakland Center
05:26PM 36.1419 -119.4714 155° Southeast 171 197 11,500  Level Oakland Center
05:27PM 36.1003 -119.4475 155° Southeast 166 191 11,500  Level Oakland Center
05:28PM 36.0494 -119.4178 155° Southeast 168 193 11,500  Level Oakland Center
05:29PM 36.0069 -119.3942 156° South 168 193 11,500  Level Oakland Center
05:30PM 35.9642 -119.3731 158° South 166 191 11,500  Level Oakland Center
05:31PM 35.9228 -119.3472 153° Southeast 165 190 11,500  Level Oakland Center
05:32PM 35.8806 -119.3225 155° Southeast 167 192 11,500  Level Oakland Center
05:33PM 35.8369 -119.2975 155° Southeast 170 196 11,500  Level Oakland Center
05:34PM 35.7939 -119.2744 157° South 170 196 11,500  Level Oakland Center
05:35PM 35.7525 -119.2508 155° Southeast 165 190 11,500  Level Oakland Center
05:36PM 35.7094 -119.2267 155° Southeast 168 193 11,500  Level Oakland Center
05:37PM 35.6669 -119.2017 154° Southeast 168 193 11,500  Level Oakland Center
05:38PM 35.6164 -119.1703 153° Southeast 170 196 11,500  Level Oakland Center
05:39PM 35.5989 -119.1617 158° South 172 198 11,500  Level Los Angeles Center
05:40PM 35.5483 -119.1339 156° South 168 193 11,500  Level Los Angeles Center
05:41PM 35.5061 -119.1083 154° Southeast 170 196 11,500  Level Los Angeles Center
05:42PM 35.4661 -119.0800 150° Southeast 169 194 11,500  Level Los Angeles Center
05:43PM 35.4417 -119.0311 122° Southeast 170 196 11,500  Level Los Angeles Center
05:44PM 35.4181 -118.9844 122° Southeast 166 191 11,500  Level Los Angeles Center
05:45PM 35.3914 -118.9361 124° Southeast 168 193 11,500  Level Los Angeles Center
05:46PM 35.3572 -118.8822 128° Southeast 168 193 11,500  Level Los Angeles Center
05:47PM 35.3297 -118.8372 127° Southeast 166 191 11,500  Level Los Angeles Center
05:48PM 35.3028 -118.7919 126° Southeast 166 191 11,500  Level Los Angeles Center
05:49PM 35.2772 -118.7467 125° Southeast 164 189 11,500  Level Los Angeles Center
05:50PM 35.2458 -118.6942 126° Southeast 161 185 11,500  Level Los Angeles Center
05:51PM 35.2197 -118.6503 126° Southeast 160 184 11,500  Level Los Angeles Center
05:53PM 35.1878 -118.5986 127° Southeast 159 183 11,500  Level Los Angeles Center
05:54PM 35.1625 -118.5547 125° Southeast 158 182 11,500  Level Los Angeles Center
05:55PM 35.1411 -118.5194 127° Southeast 160 184 11,500  Level Los Angeles Center
05:56PM 35.1083 -118.4689 128° Southeast 162 186 11,500  Level Los Angeles Center
05:57PM 35.0819 -118.4225 125° Southeast 165 190 11,500  Level Los Angeles Center
05:58PM 35.0550 -118.3775 126° Southeast 165 190 11,500  Level Los Angeles Center
05:59PM 35.0236 -118.3258 127° Southeast 160 184 11,500  Level Los Angeles Center
06:00PM 34.9972 -118.2822 126° Southeast 160 184 11,500  Level Los Angeles Center
06:01PM 34.9719 -118.2406 127° Southeast 155 178 11,500  Level Los Angeles Center
06:02PM 34.9450 -118.1983 128° Southeast 157 181 11,500  Level Los Angeles Center
06:03PM 34.9128 -118.1394 124° Southeast 173 199 11,500  Level Los Angeles Center
06:04PM 34.8781 -118.0836 127° Southeast 173 199 11,500  Level Los Angeles Center
06:05PM 34.8492 -118.0367 127° Southeast 174 200 11,500  Level Los Angeles Center
06:06PM 34.8186 -117.9903 129° Southeast 176 203 11,500  Level Los Angeles Center
06:07PM 34.7908 -117.9444 126° Southeast 171 197 11,500  Level Los Angeles Center
06:08PM 34.7639 -117.8992 126° Southeast 169 194 11,500  Level Los Angeles Center
06:09PM 34.7397 -117.8539 123° Southeast 163 188 11,500  Level Los Angeles Center
06:10PM 34.7094 -117.8069 128° Southeast 148 170 11,500  Level Los Angeles Center
06:11PM 34.6839 -117.7661 127° Southeast 151 174 11,500  Level Los Angeles Center
06:12PM 34.6589 -117.7239 126° Southeast 154 177 11,500  Level Los Angeles Center
06:14PM 34.6319 -117.6825 128° Southeast 156 180 11,500  Level Los Angeles Center
06:15PM 34.6072 -117.6286 119° Southeast 153 176 11,500  Level Los Angeles Center
06:16PM 34.5947 -117.5906 112° Southeast 152 175 11,500  Level Los Angeles Center
06:17PM 34.5739 -117.5228 110° East 153 176 11,500  Level Los Angeles Center
06:18PM 34.5633 -117.4839 108° East 153 176 11,500  Level Los Angeles Center
06:19PM 34.5458 -117.4239 109° East 155 178 11,500  Level Los Angeles Center
06:20PM 34.5292 -117.3728 112° Southeast 162 186 11,500  Level Los Angeles Center
06:21PM 34.5128 -117.3256 113° Southeast 159 183 11,500  Level Los Angeles Center
06:22PM 34.4986 -117.2728 108° East 145 167 11,500  Level Los Angeles Center
06:23PM 34.4889 -117.2253 104° East 143 165 11,500 -60 Level Los Angeles Center
06:24PM 34.4767 -117.1778 107° East 146 168 11,400 -60 Descending Los Angeles Center
06:25PM 34.4636 -117.1253 107° East 155 178 11,400 60 Level Los Angeles Center
06:26PM 34.4453 -117.0789 116° Southeast 155 178 11,600 60 Climbing Los Angeles Center
06:27PM 34.4269 -117.0325 116° Southeast 154 177 11,600  Level Los Angeles Center
06:28PM 34.4069 -116.9756 113° Southeast 154 177 11,600  Level Los Angeles Center
06:29PM 34.3947 -116.9281 107° East 150 173 11,600  Level Los Angeles Center
06:30PM 34.3814 -116.8806 109° East 149 171 11,600  Level Los Angeles Center
06:31PM 34.3614 -116.8358 118° Southeast 151 174 11,600  Level Los Angeles Center
06:32PM 34.3372 -116.7950 126° Southeast 150 173 11,600  Level Los Angeles Center
06:33PM 34.3125 -116.7519 125° Southeast 153 176 11,600  Level Los Angeles Center
06:34PM 34.2822 -116.7108 132° Southeast 164 189 11,600 -120 Level Los Angeles Center
06:35PM 34.2461 -116.6619 132° Southeast 166 191 11,400 -300 Descending Los Angeles Center
06:36PM 34.2128 -116.6275 139° Southeast 161 185 11,100 -240 Descending Los Angeles Center
06:37PM 34.1761 -116.5969 145° Southeast 161 185 11,000 -240 Descending Los Angeles Center
06:38PM 34.1356 -116.5711 152° Southeast 163 188 10,700 -540 Descending Los Angeles Center
06:39PM 34.0903 -116.5553 164° South 164 189 10,000 -840 Descending Los Angeles Center
06:40PM 34.0525 -116.5353 156° South 152 175 9,000 -1,200 Descending Los Angeles Center
06:41PM 34.0142 -116.5089 150° Southeast 149 171 7,600 -1,140 Descending Los Angeles Center
06:44PM 33.9500 -116.4500 143° Southeast 145 167 5,600 -720 Descending Southern California TRACON
06:45PM 33.9167 -116.4167 140° Southeast 153 176 5,500 -120 Descending Southern California TRACON
06:45PM 33.8833 -116.3833 140° Southeast 152 175 5,400 -420 Descending Southern California TRACON
06:47PM 33.8333 -116.4000 195° South 160 184 4,700 -600 Descending Southern California TRACON
06:48PM 33.8000 -116.4000 180° South 141 162 4,200 -540 Descending Southern California TRACON
06:50PM 33.7721 -116.3184 132° Southeast  Level FlightAware Approximate
06:57PM 33.7484 -116.2748 132° Southeast  Level Estimated
06:58PM 33.7484 -116.2748 132° Southeast  Level Estimated
06:59PM 33.7484 -116.2748 132° Southeast  Level Estimated
07:00PM 33.7484 -116.2748 132° Southeast  Level Estimated
07:01PM 33.7484 -116.2748 132° Southeast  Level Estimated
07:02PM 33.7484 -116.2748 132° Southeast  Level Estimated
07:03PM 33.7484 -116.2748 132° Southeast  Level Estimated
07:04PM 33.7484 -116.2748 132° Southeast  Level Estimated
07:05PM 33.7484 -116.2748 132° Southeast  Level Estimated
07:06PM 33.7484 -116.2748 132° Southeast  Level Estimated
07:07PM 33.7484 -116.2748 132° Southeast  Level Estimated
07:08PM 33.7484 -116.2748 132° Southeast  Level Estimated
07:09PM 33.7484 -116.2748 132° Southeast  Level Estimated
07:10PM 33.7484 -116.2748 132° Southeast  Level Estimated
07:11PM 33.7484 -116.2748 132° Southeast  Level Estimated
07:12PM 33.7484 -116.2748 132° Southeast  Level Estimated
07:13PM 33.7484 -116.2748 132° Southeast  Level Estimated
07:14PM 33.7484 -116.2748 132° Southeast  Level Estimated
07:15PM 33.7484 -116.2748 132° Southeast  Level Estimated
07:16PM 33.7484 -116.2748 132° Southeast  Level Estimated
07:17PM 33.7484 -116.2748 132° Southeast  Level Estimated
07:18PM 33.7484 -116.2748 132° Southeast  Level Estimated
07:19PM 33.7484 -116.2748 132° Southeast  Level Estimated
07:20PM 33.7484 -116.2748 132° Southeast  Level Estimated
07:21PM 33.7484 -116.2748 132° Southeast  Level Estimated
07:22PM 33.7484 -116.2748 132° Southeast  Level Estimated
07:23PM 33.7484 -116.2748 132° Southeast  Level Estimated
07:24PM 33.7484 -116.2748 132° Southeast  Level Estimated
07:25PM 33.7484 -116.2748 132° Southeast  Level Estimated
07:26PM 33.7484 -116.2748 132° Southeast  Level Estimated
07:27PM 33.7484 -116.2748 132° Southeast  Level Estimated
07:28PM 33.7484 -116.2748 132° Southeast  Level Estimated
07:29PM 33.7484 -116.2748 132° Southeast  Level Estimated
07:30PM 33.7484 -116.2748 132° Southeast  Level Estimated
07:31PM 33.7484 -116.2748 132° Southeast  Level Estimated
07:32PM 33.7484 -116.2748 132° Southeast  Level Estimated
07:33PM 33.7484 -116.2748 132° Southeast  Level Estimated
07:34PM 33.7484 -116.2748 132° Southeast  Level Estimated
07:35PM 33.7484 -116.2748 132° Southeast  Level Estimated
07:36PM 33.7484 -116.2748 132° Southeast  Level Estimated
07:37PM 33.7484 -116.2748 132° Southeast  Level Estimated
07:38PM 33.7484 -116.2748 132° Southeast  Level Estimated
07:39PM 33.7484 -116.2748 132° Southeast  Level Estimated
07:40PM 33.7484 -116.2748 132° Southeast  Level Estimated
07:41PM 33.7484 -116.2748 132° Southeast  Level Estimated
07:42PM 33.7484 -116.2748 132° Southeast  Level Estimated
07:43PM 33.7484 -116.2748 132° Southeast  Level Estimated
07:44PM 33.7484 -116.2748 132° Southeast  Level Estimated
07:45PM 33.7484 -116.2748 132° Southeast  Level Estimated
07:46PM 33.7484 -116.2748 132° Southeast  Level Estimated
07:47PM 33.7484 -116.2748 132° Southeast  Level Estimated
07:48PM 33.7484 -116.2748 132° Southeast  Level Estimated
07:49PM 33.7484 -116.2748 132° Southeast  Level Estimated
07:50PM 33.7484 -116.2748 132° Southeast  Level Estimated
07:51PM 33.7484 -116.2748 132° Southeast  Level Estimated
07:52PM 33.7484 -116.2748 132° Southeast  Level Estimated
07:53PM 33.7484 -116.2748 132° Southeast  Level Estimated
07:54PM 33.7484 -116.2748 132° Southeast  Level Estimated
07:55PM 33.7484 -116.2748 132° Southeast  Level Estimated
07:56PM 33.7484 -116.2748 132° Southeast  Level Estimated
07:57PM 33.7484 -116.2748 132° Southeast  Level Estimated
07:58PM 33.7484 -116.2748 132° Southeast  Level Estimated
07:59PM 33.7484 -116.2748 132° Southeast  Level Estimated
08:00PM 33.7484 -116.2748 132° Southeast  Level Estimated
08:01PM 33.7484 -116.2748 132° Southeast  Level Estimated
08:02PM 33.7484 -116.2748 132° Southeast  Level Estimated
08:03PM 33.7484 -116.2748 132° Southeast  Level Estimated
08:04PM 33.7484 -116.2748 132° Southeast  Level Estimated
08:05PM 33.7484 -116.2748 132° Southeast  Level Estimated
08:06PM 33.7484 -116.2748 132° Southeast  Level Estimated
08:07PM 33.7484 -116.2748 132° Southeast  Level Estimated
08:08PM 33.7484 -116.2748 132° Southeast  Level Estimated
08:09PM 33.7484 -116.2748 132° Southeast  Level Estimated
08:10PM 33.7484 -116.2748 132° Southeast  Level Estimated
08:11PM 33.7484 -116.2748 132° Southeast  Level Estimated
08:12PM 33.7484 -116.2748 132° Southeast  Level Estimated
08:13PM 33.7484 -116.2748 132° Southeast  Level Estimated
08:14PM 33.7484 -116.2748 132° Southeast  Level Estimated
08:15PM 33.7484 -116.2748 132° Southeast  Level Estimated
08:16PM 33.7484 -116.2748 132° Southeast  Level Estimated
08:17PM 33.7484 -116.2748 132° Southeast  Level Estimated
08:18PM 33.7484 -116.2748 132° Southeast  Level Estimated
08:19PM 33.7484 -116.2748 132° Southeast  Level Estimated
08:20PM 33.7484 -116.2748 132° Southeast  Level Estimated
08:21PM 33.7484 -116.2748 132° Southeast  Level Estimated
08:22PM 33.7484 -116.2748 132° Southeast  Level Estimated
08:23PM 33.7484 -116.2748 132° Southeast  Level Estimated